sensor_id;sensor_type;location;lat;lon;timestamp;temperature;humidity
5842;DHT22;2947;52.276;9.946;2024-01-07T00:01:14;0.10;99.90
5842;DHT22;2947;52.276;9.946;2024-01-07T00:03:43;0.10;99.90
5842;DHT22;2947;52.276;9.946;2024-01-07T00:06:10;0.00;99.90
5842;DHT22;2947;52.276;9.946;2024-01-07T00:08:36;0.10;99.90
5842;DHT22;2947;52.276;9.946;2024-01-07T00:11:02;0.10;99.90
5842;DHT22;2947;52.276;9.946;2024-01-07T00:13:28;0.10;99.90
5842;DHT22;2947;52.276;9.946;2024-01-07T00:15:54;0.10;99.90
5842;DHT22;2947;52.276;9.946;2024-01-07T00:18:21;0.10;99.90
5842;DHT22;2947;52.276;9.946;2024-01-07T00:20:47;0.10;99.90
5842;DHT22;2947;52.276;9.946;2024-01-07T00:23:13;0.00;99.90
5842;DHT22;2947;52.276;9.946;2024-01-07T00:25:38;0.10;99.90
5842;DHT22;2947;52.276;9.946;2024-01-07T00:28:04;0.00;99.90
5842;DHT22;2947;52.276;9.946;2024-01-07T00:30:31;0.00;99.90
5842;DHT22;2947;52.276;9.946;2024-01-07T00:32:56;0.00;99.90
5842;DHT22;2947;52.276;9.946;2024-01-07T00:35:22;-0.10;99.90
5842;DHT22;2947;52.276;9.946;2024-01-07T00:37:48;-0.10;99.90
5842;DHT22;2947;52.276;9.946;2024-01-07T00:40:13;-0.10;99.90
5842;DHT22;2947;52.276;9.946;2024-01-07T00:42:39;-0.10;99.90
5842;DHT22;2947;52.276;9.946;2024-01-07T00:45:05;-0.10;99.90
5842;DHT22;2947;52.276;9.946;2024-01-07T00:47:31;-0.10;99.90
5842;DHT22;2947;52.276;9.946;2024-01-07T00:49:57;-0.10;99.90
5842;DHT22;2947;52.276;9.946;2024-01-07T00:52:23;-0.10;99.90
5842;DHT22;2947;52.276;9.946;2024-01-07T00:54:48;-0.20;99.90
5842;DHT22;2947;52.276;9.946;2024-01-07T00:57:14;-0.10;99.90
5842;DHT22;2947;52.276;9.946;2024-01-07T00:59:40;-0.20;99.90
5842;DHT22;2947;52.276;9.946;2024-01-07T01:02:06;-0.20;99.90
5842;DHT22;2947;52.276;9.946;2024-01-07T01:04:31;-0.20;99.90
5842;DHT22;2947;52.276;9.946;2024-01-07T01:06:57;-0.20;99.90
5842;DHT22;2947;52.276;9.946;2024-01-07T01:09:23;-0.50;99.90
5842;DHT22;2947;52.276;9.946;2024-01-07T01:11:48;-0.20;99.90
5842;DHT22;2947;52.276;9.946;2024-01-07T01:14:15;-0.20;99.90
5842;DHT22;2947;52.276;9.946;2024-01-07T01:16:41;-0.20;99.90
5842;DHT22;2947;52.276;9.946;2024-01-07T01:19:06;-0.20;99.90
5842;DHT22;2947;52.276;9.946;2024-01-07T01:21:34;-0.30;99.90
5842;DHT22;2947;52.276;9.946;2024-01-07T01:24:00;-0.30;99.90
5842;DHT22;2947;52.276;9.946;2024-01-07T01:26:25;-0.20;99.90
5842;DHT22;2947;52.276;9.946;2024-01-07T01:28:51;-0.30;99.90
5842;DHT22;2947;52.276;9.946;2024-01-07T01:31:17;-0.30;99.90
5842;DHT22;2947;52.276;9.946;2024-01-07T01:33:42;-0.30;99.90
5842;DHT22;2947;52.276;9.946;2024-01-07T01:36:08;-0.30;99.90
5842;DHT22;2947;52.276;9.946;2024-01-07T01:38:34;-0.30;99.90
5842;DHT22;2947;52.276;9.946;2024-01-07T01:41:00;-0.30;99.90
5842;DHT22;2947;52.276;9.946;2024-01-07T01:43:29;-0.40;99.90
5842;DHT22;2947;52.276;9.946;2024-01-07T01:45:55;-0.30;99.90
5842;DHT22;2947;52.276;9.946;2024-01-07T01:48:22;-0.40;99.90
5842;DHT22;2947;52.276;9.946;2024-01-07T01:50:49;-0.40;99.90
5842;DHT22;2947;52.276;9.946;2024-01-07T01:53:15;-0.50;99.90
5842;DHT22;2947;52.276;9.946;2024-01-07T01:55:44;-0.40;99.90
5842;DHT22;2947;52.276;9.946;2024-01-07T01:58:10;-0.50;99.90
5842;DHT22;2947;52.276;9.946;2024-01-07T02:00:38;-0.50;99.90
5842;DHT22;2947;52.276;9.946;2024-01-07T02:03:04;-0.50;99.90
5842;DHT22;2947;52.276;9.946;2024-01-07T02:05:31;-0.50;99.90
5842;DHT22;2947;52.276;9.946;2024-01-07T02:07:57;-0.50;99.90
5842;DHT22;2947;52.276;9.946;2024-01-07T02:10:23;-0.50;99.90
5842;DHT22;2947;52.276;9.946;2024-01-07T02:12:49;-0.60;99.90
5842;DHT22;2947;52.276;9.946;2024-01-07T02:15:15;-0.60;99.90
5842;DHT22;2947;52.276;9.946;2024-01-07T02:17:41;-1.90;99.90
5842;DHT22;2947;52.276;9.946;2024-01-07T02:20:07;-0.50;99.90
5842;DHT22;2947;52.276;9.946;2024-01-07T02:22:33;-0.60;99.90
5842;DHT22;2947;52.276;9.946;2024-01-07T02:24:59;-0.60;99.90
5842;DHT22;2947;52.276;9.946;2024-01-07T02:27:25;-0.60;99.90
5842;DHT22;2947;52.276;9.946;2024-01-07T02:29:51;-0.60;99.90
5842;DHT22;2947;52.276;9.946;2024-01-07T02:32:16;-0.50;99.90
5842;DHT22;2947;52.276;9.946;2024-01-07T02:34:42;-0.50;99.90
5842;DHT22;2947;52.276;9.946;2024-01-07T02:37:08;-0.50;99.90
5842;DHT22;2947;52.276;9.946;2024-01-07T02:39:33;-0.60;99.90
5842;DHT22;2947;52.276;9.946;2024-01-07T02:41:59;-0.60;99.90
5842;DHT22;2947;52.276;9.946;2024-01-07T02:44:25;-0.60;99.90
5842;DHT22;2947;52.276;9.946;2024-01-07T02:46:51;-0.60;99.90
5842;DHT22;2947;52.276;9.946;2024-01-07T02:49:16;-0.60;99.90
5842;DHT22;2947;52.276;9.946;2024-01-07T02:51:42;-0.60;99.90
5842;DHT22;2947;52.276;9.946;2024-01-07T02:54:10;-0.70;99.90
5842;DHT22;2947;52.276;9.946;2024-01-07T02:56:36;-0.80;99.90
5842;DHT22;2947;52.276;9.946;2024-01-07T02:59:01;-0.90;99.90
5842;DHT22;2947;52.276;9.946;2024-01-07T03:01:27;-0.70;99.90
5842;DHT22;2947;52.276;9.946;2024-01-07T03:03:53;-0.80;99.90
5842;DHT22;2947;52.276;9.946;2024-01-07T03:06:18;-0.80;99.90
5842;DHT22;2947;52.276;9.946;2024-01-07T03:08:44;-0.80;99.90
5842;DHT22;2947;52.276;9.946;2024-01-07T03:11:10;-0.90;99.90
5842;DHT22;2947;52.276;9.946;2024-01-07T03:13:36;-0.90;99.90
5842;DHT22;2947;52.276;9.946;2024-01-07T03:16:02;-0.90;99.90
5842;DHT22;2947;52.276;9.946;2024-01-07T03:18:30;-0.90;99.90
5842;DHT22;2947;52.276;9.946;2024-01-07T03:20:56;-0.90;99.90
5842;DHT22;2947;52.276;9.946;2024-01-07T03:23:21;0.40;99.90
5842;DHT22;2947;52.276;9.946;2024-01-07T03:25:47;-0.80;99.90
5842;DHT22;2947;52.276;9.946;2024-01-07T03:28:13;-0.90;99.90
5842;DHT22;2947;52.276;9.946;2024-01-07T03:30:38;-0.90;99.90
5842;DHT22;2947;52.276;9.946;2024-01-07T03:33:06;-0.90;99.90
5842;DHT22;2947;52.276;9.946;2024-01-07T03:35:31;-0.90;99.90
5842;DHT22;2947;52.276;9.946;2024-01-07T03:37:57;-0.90;99.90
5842;DHT22;2947;52.276;9.946;2024-01-07T03:40:23;-0.80;99.90
5842;DHT22;2947;52.276;9.946;2024-01-07T03:42:48;-1.00;99.90
5842;DHT22;2947;52.276;9.946;2024-01-07T03:45:14;-0.90;99.90
5842;DHT22;2947;52.276;9.946;2024-01-07T03:47:40;-0.30;99.90
5842;DHT22;2947;52.276;9.946;2024-01-07T03:50:06;-0.90;99.90
5842;DHT22;2947;52.276;9.946;2024-01-07T03:52:32;-1.00;99.90
5842;DHT22;2947;52.276;9.946;2024-01-07T03:54:58;-1.00;99.90
5842;DHT22;2947;52.276;9.946;2024-01-07T03:57:24;-1.50;99.90
5842;DHT22;2947;52.276;9.946;2024-01-07T03:59:49;-1.00;99.90
5842;DHT22;2947;52.276;9.946;2024-01-07T04:02:15;-1.00;99.90
5842;DHT22;2947;52.276;9.946;2024-01-07T04:04:42;-0.10;99.90
5842;DHT22;2947;52.276;9.946;2024-01-07T04:07:07;-0.40;99.90
5842;DHT22;2947;52.276;9.946;2024-01-07T04:09:33;-1.00;99.90
5842;DHT22;2947;52.276;9.946;2024-01-07T04:11:59;-1.00;99.90
5842;DHT22;2947;52.276;9.946;2024-01-07T04:14:25;-1.00;99.90
5842;DHT22;2947;52.276;9.946;2024-01-07T04:16:52;-1.00;99.90
5842;DHT22;2947;52.276;9.946;2024-01-07T04:19:18;-0.90;99.90
5842;DHT22;2947;52.276;9.946;2024-01-07T04:21:47;-1.00;99.90
5842;DHT22;2947;52.276;9.946;2024-01-07T04:24:13;-1.00;99.90
5842;DHT22;2947;52.276;9.946;2024-01-07T04:26:39;-1.00;99.90
5842;DHT22;2947;52.276;9.946;2024-01-07T04:29:04;-1.00;99.90
5842;DHT22;2947;52.276;9.946;2024-01-07T04:31:31;-1.00;99.90
5842;DHT22;2947;52.276;9.946;2024-01-07T04:33:57;-0.90;99.90
5842;DHT22;2947;52.276;9.946;2024-01-07T04:36:23;-0.90;99.90
5842;DHT22;2947;52.276;9.946;2024-01-07T04:38:48;-0.90;99.90
5842;DHT22;2947;52.276;9.946;2024-01-07T04:41:14;-1.00;99.90
5842;DHT22;2947;52.276;9.946;2024-01-07T04:43:42;-1.00;99.90
5842;DHT22;2947;52.276;9.946;2024-01-07T04:46:08;-1.00;99.90
5842;DHT22;2947;52.276;9.946;2024-01-07T04:48:36;-0.80;99.90
5842;DHT22;2947;52.276;9.946;2024-01-07T04:51:01;-1.00;99.90
5842;DHT22;2947;52.276;9.946;2024-01-07T04:53:27;-1.00;92.10
5842;DHT22;2947;52.276;9.946;2024-01-07T04:55:53;-1.00;93.60
5842;DHT22;2947;52.276;9.946;2024-01-07T04:58:18;-0.30;99.90
5842;DHT22;2947;52.276;9.946;2024-01-07T05:00:44;-1.00;99.90
5842;DHT22;2947;52.276;9.946;2024-01-07T05:03:10;-1.10;89.80
5842;DHT22;2947;52.276;9.946;2024-01-07T05:05:36;-1.00;99.90
5842;DHT22;2947;52.276;9.946;2024-01-07T05:08:02;-1.10;88.10
5842;DHT22;2947;52.276;9.946;2024-01-07T05:10:28;-1.00;50.70
5842;DHT22;2947;52.276;9.946;2024-01-07T05:12:54;-1.10;41.20
5842;DHT22;2947;52.276;9.946;2024-01-07T05:15:19;-1.00;42.50
5842;DHT22;2947;52.276;9.946;2024-01-07T05:17:45;-1.10;22.10
5842;DHT22;2947;52.276;9.946;2024-01-07T05:20:11;0.20;8.20
5842;DHT22;2947;52.276;9.946;2024-01-07T05:22:37;-1.00;45.10
5842;DHT22;2947;52.276;9.946;2024-01-07T05:25:03;-1.00;80.00
5842;DHT22;2947;52.276;9.946;2024-01-07T05:27:31;-1.10;99.90
5842;DHT22;2947;52.276;9.946;2024-01-07T05:29:56;0.20;99.90
5842;DHT22;2947;52.276;9.946;2024-01-07T05:32:22;-1.10;91.00
5842;DHT22;2947;52.276;9.946;2024-01-07T05:34:49;-1.00;97.20
5842;DHT22;2947;52.276;9.946;2024-01-07T05:37:15;-0.10;98.60
5842;DHT22;2947;52.276;9.946;2024-01-07T05:39:41;-1.10;58.10
5842;DHT22;2947;52.276;9.946;2024-01-07T05:42:07;-1.00;48.60
5842;DHT22;2947;52.276;9.946;2024-01-07T05:44:33;-1.10;44.50
5842;DHT22;2947;52.276;9.946;2024-01-07T05:46:58;-1.10;72.60
5842;DHT22;2947;52.276;9.946;2024-01-07T05:49:24;-1.20;27.80
5842;DHT22;2947;52.276;9.946;2024-01-07T05:51:50;-1.10;11.00
5842;DHT22;2947;52.276;9.946;2024-01-07T05:54:15;0.10;1.00
5842;DHT22;2947;52.276;9.946;2024-01-07T05:56:41;-1.20;1.00
5842;DHT22;2947;52.276;9.946;2024-01-07T05:59:07;-1.20;1.00
5842;DHT22;2947;52.276;9.946;2024-01-07T06:01:33;0.20;1.00
5842;DHT22;2947;52.276;9.946;2024-01-07T06:04:00;-0.60;1.00
5842;DHT22;2947;52.276;9.946;2024-01-07T06:06:26;-1.30;1.00
5842;DHT22;2947;52.276;9.946;2024-01-07T06:08:52;-1.30;1.00
5842;DHT22;2947;52.276;9.946;2024-01-07T06:11:17;-1.30;1.00
5842;DHT22;2947;52.276;9.946;2024-01-07T06:13:46;-1.30;1.00
5842;DHT22;2947;52.276;9.946;2024-01-07T06:16:12;-1.20;1.00
5842;DHT22;2947;52.276;9.946;2024-01-07T06:18:37;-1.40;1.00
5842;DHT22;2947;52.276;9.946;2024-01-07T06:21:03;-1.50;1.00
5842;DHT22;2947;52.276;9.946;2024-01-07T06:23:30;-1.40;1.00
5842;DHT22;2947;52.276;9.946;2024-01-07T06:25:58;-1.50;1.00
5842;DHT22;2947;52.276;9.946;2024-01-07T06:28:23;-1.50;1.00
5842;DHT22;2947;52.276;9.946;2024-01-07T06:30:49;-1.50;1.00
5842;DHT22;2947;52.276;9.946;2024-01-07T06:33:14;-2.10;1.00
5842;DHT22;2947;52.276;9.946;2024-01-07T06:35:40;-1.40;1.00
5842;DHT22;2947;52.276;9.946;2024-01-07T06:38:06;-1.50;1.00
5842;DHT22;2947;52.276;9.946;2024-01-07T06:40:32;-1.50;1.00
5842;DHT22;2947;52.276;9.946;2024-01-07T06:42:58;-1.20;14.10
5842;DHT22;2947;52.276;9.946;2024-01-07T06:45:23;-2.90;37.10
5842;DHT22;2947;52.276;9.946;2024-01-07T06:47:49;-1.50;49.70
5842;DHT22;2947;52.276;9.946;2024-01-07T06:50:15;-1.50;40.80
5842;DHT22;2947;52.276;9.946;2024-01-07T06:52:40;-1.50;34.30
5842;DHT22;2947;52.276;9.946;2024-01-07T06:55:07;-1.50;1.00
5842;DHT22;2947;52.276;9.946;2024-01-07T06:57:33;-1.50;1.00
5842;DHT22;2947;52.276;9.946;2024-01-07T06:59:59;-1.50;2.70
5842;DHT22;2947;52.276;9.946;2024-01-07T07:02:24;-1.50;6.80
5842;DHT22;2947;52.276;9.946;2024-01-07T07:04:50;-1.50;1.00
5842;DHT22;2947;52.276;9.946;2024-01-07T07:07:17;-1.50;1.00
5842;DHT22;2947;52.276;9.946;2024-01-07T07:09:42;-1.50;1.00
5842;DHT22;2947;52.276;9.946;2024-01-07T07:12:08;-1.50;1.00
5842;DHT22;2947;52.276;9.946;2024-01-07T07:14:34;-1.50;1.00
5842;DHT22;2947;52.276;9.946;2024-01-07T07:17:00;-1.60;1.00
5842;DHT22;2947;52.276;9.946;2024-01-07T07:19:26;-1.60;1.00
5842;DHT22;2947;52.276;9.946;2024-01-07T07:21:51;-0.70;1.00
5842;DHT22;2947;52.276;9.946;2024-01-07T07:24:17;-1.60;1.00
5842;DHT22;2947;52.276;9.946;2024-01-07T07:26:43;-1.60;1.00
5842;DHT22;2947;52.276;9.946;2024-01-07T07:29:09;-1.60;1.00
5842;DHT22;2947;52.276;9.946;2024-01-07T07:31:37;-1.60;1.00
5842;DHT22;2947;52.276;9.946;2024-01-07T07:34:08;-1.70;1.00
5842;DHT22;2947;52.276;9.946;2024-01-07T07:36:34;-1.70;1.00
5842;DHT22;2947;52.276;9.946;2024-01-07T07:39:00;-1.60;7.80
5842;DHT22;2947;52.276;9.946;2024-01-07T07:41:25;-0.30;17.30
5842;DHT22;2947;52.276;9.946;2024-01-07T07:43:51;-1.60;15.90
5842;DHT22;2947;52.276;9.946;2024-01-07T07:46:17;-1.70;16.80
5842;DHT22;2947;52.276;9.946;2024-01-07T07:48:42;-1.70;21.60
5842;DHT22;2947;52.276;9.946;2024-01-07T07:51:08;-1.70;20.60
5842;DHT22;2947;52.276;9.946;2024-01-07T07:53:34;-1.70;21.10
5842;DHT22;2947;52.276;9.946;2024-01-07T07:56:06;-1.70;41.00
5842;DHT22;2947;52.276;9.946;2024-01-07T07:58:32;-1.70;63.60
5842;DHT22;2947;52.276;9.946;2024-01-07T08:00:57;-1.70;72.80
5842;DHT22;2947;52.276;9.946;2024-01-07T08:03:23;-1.70;57.10
5842;DHT22;2947;52.276;9.946;2024-01-07T08:05:49;-0.90;85.10
5842;DHT22;2947;52.276;9.946;2024-01-07T08:08:15;-0.40;92.70
5842;DHT22;2947;52.276;9.946;2024-01-07T08:10:42;-1.70;94.90
5842;DHT22;2947;52.276;9.946;2024-01-07T08:13:08;-1.70;93.60
5842;DHT22;2947;52.276;9.946;2024-01-07T08:15:35;-1.70;98.80
5842;DHT22;2947;52.276;9.946;2024-01-07T08:18:01;-1.70;99.90
5842;DHT22;2947;52.276;9.946;2024-01-07T08:20:27;-0.90;87.30
5842;DHT22;2947;52.276;9.946;2024-01-07T08:22:54;-1.70;98.50
5842;DHT22;2947;52.276;9.946;2024-01-07T08:25:20;-1.70;99.90
5842;DHT22;2947;52.276;9.946;2024-01-07T08:27:45;-1.70;79.30
5842;DHT22;2947;52.276;9.946;2024-01-07T08:30:12;-1.70;94.90
5842;DHT22;2947;52.276;9.946;2024-01-07T08:32:39;-1.70;93.50
5842;DHT22;2947;52.276;9.946;2024-01-07T08:35:06;-1.70;95.90
5842;DHT22;2947;52.276;9.946;2024-01-07T08:37:32;-1.60;99.90
5842;DHT22;2947;52.276;9.946;2024-01-07T08:39:58;-1.60;99.90
5842;DHT22;2947;52.276;9.946;2024-01-07T08:42:25;-1.60;90.70
5842;DHT22;2947;52.276;9.946;2024-01-07T08:44:50;-1.60;80.10
5842;DHT22;2947;52.276;9.946;2024-01-07T08:47:18;-1.60;86.60
5842;DHT22;2947;52.276;9.946;2024-01-07T08:49:44;-1.50;99.90
5842;DHT22;2947;52.276;9.946;2024-01-07T08:52:09;-1.50;98.90
5842;DHT22;2947;52.276;9.946;2024-01-07T08:54:35;-1.50;99.90
5842;DHT22;2947;52.276;9.946;2024-01-07T08:57:01;-1.50;99.90
5842;DHT22;2947;52.276;9.946;2024-01-07T08:59:27;-1.50;99.90
5842;DHT22;2947;52.276;9.946;2024-01-07T09:01:53;-1.50;99.90
5842;DHT22;2947;52.276;9.946;2024-01-07T09:04:19;-1.50;99.90
5842;DHT22;2947;52.276;9.946;2024-01-07T09:06:46;-1.50;99.90
5842;DHT22;2947;52.276;9.946;2024-01-07T09:09:11;-1.30;99.90
5842;DHT22;2947;52.276;9.946;2024-01-07T09:11:38;-1.40;99.90
5842;DHT22;2947;52.276;9.946;2024-01-07T09:14:04;-1.40;99.90
5842;DHT22;2947;52.276;9.946;2024-01-07T09:16:30;-1.40;99.50
5842;DHT22;2947;52.276;9.946;2024-01-07T09:18:56;-1.40;99.90
5842;DHT22;2947;52.276;9.946;2024-01-07T09:21:21;-1.40;99.90
5842;DHT22;2947;52.276;9.946;2024-01-07T09:23:48;-1.40;99.90
5842;DHT22;2947;52.276;9.946;2024-01-07T09:26:14;-1.40;99.90
5842;DHT22;2947;52.276;9.946;2024-01-07T09:28:40;-1.30;99.90
5842;DHT22;2947;52.276;9.946;2024-01-07T09:31:08;-1.40;88.10
5842;DHT22;2947;52.276;9.946;2024-01-07T09:33:34;-1.30;98.60
5842;DHT22;2947;52.276;9.946;2024-01-07T09:35:59;-1.40;94.70
5842;DHT22;2947;52.276;9.946;2024-01-07T09:38:26;-0.40;92.80
5842;DHT22;2947;52.276;9.946;2024-01-07T09:40:52;-1.30;99.90
5842;DHT22;2947;52.276;9.946;2024-01-07T09:43:19;-1.30;99.90
5842;DHT22;2947;52.276;9.946;2024-01-07T09:45:46;-1.20;99.90
5842;DHT22;2947;52.276;9.946;2024-01-07T09:48:15;-1.20;99.90
5842;DHT22;2947;52.276;9.946;2024-01-07T09:50:41;-1.20;99.90
5842;DHT22;2947;52.276;9.946;2024-01-07T09:53:13;-1.20;99.90
5842;DHT22;2947;52.276;9.946;2024-01-07T09:56:50;-1.20;99.90
5842;DHT22;2947;52.276;9.946;2024-01-07T09:58:45;-1.20;99.90
5842;DHT22;2947;52.276;9.946;2024-01-07T10:01:16;-1.10;99.90
5842;DHT22;2947;52.276;9.946;2024-01-07T10:03:42;-1.20;99.90
5842;DHT22;2947;52.276;9.946;2024-01-07T10:06:10;-1.10;99.90
5842;DHT22;2947;52.276;9.946;2024-01-07T10:08:37;-1.10;99.90
5842;DHT22;2947;52.276;9.946;2024-01-07T10:11:03;-1.10;99.90
5842;DHT22;2947;52.276;9.946;2024-01-07T10:13:31;-1.20;99.90
5842;DHT22;2947;52.276;9.946;2024-01-07T10:15:57;-1.10;99.90
5842;DHT22;2947;52.276;9.946;2024-01-07T10:18:23;-1.10;99.90
5842;DHT22;2947;52.276;9.946;2024-01-07T10:20:50;-1.00;99.90
5842;DHT22;2947;52.276;9.946;2024-01-07T10:23:19;-2.00;99.90
5842;DHT22;2947;52.276;9.946;2024-01-07T10:25:45;-1.10;99.90
5842;DHT22;2947;52.276;9.946;2024-01-07T10:28:12;-1.00;99.90
5842;DHT22;2947;52.276;9.946;2024-01-07T10:30:39;-1.00;99.90
5842;DHT22;2947;52.276;9.946;2024-01-07T10:33:08;-0.90;99.90
5842;DHT22;2947;52.276;9.946;2024-01-07T10:35:35;-1.00;99.90
5842;DHT22;2947;52.276;9.946;2024-01-07T10:38:03;-1.00;99.90
5842;DHT22;2947;52.276;9.946;2024-01-07T10:40:30;-1.10;99.90
5842;DHT22;2947;52.276;9.946;2024-01-07T10:42:57;-1.00;99.90
5842;DHT22;2947;52.276;9.946;2024-01-07T10:45:23;-1.00;99.10
5842;DHT22;2947;52.276;9.946;2024-01-07T10:47:50;-1.00;99.90
5842;DHT22;2947;52.276;9.946;2024-01-07T10:50:18;-1.00;99.90
5842;DHT22;2947;52.276;9.946;2024-01-07T10:52:49;-1.00;99.90
5842;DHT22;2947;52.276;9.946;2024-01-07T10:55:18;-0.30;96.60
5842;DHT22;2947;52.276;9.946;2024-01-07T10:57:46;-0.90;93.90
5842;DHT22;2947;52.276;9.946;2024-01-07T11:00:16;-0.90;95.80
5842;DHT22;2947;52.276;9.946;2024-01-07T11:02:55;-0.90;99.90
5842;DHT22;2947;52.276;9.946;2024-01-07T11:05:39;-0.90;99.90
5842;DHT22;2947;52.276;9.946;2024-01-07T11:11:10;-0.80;99.90
5842;DHT22;2947;52.276;9.946;2024-01-07T11:13:49;-0.80;86.20
5842;DHT22;2947;52.276;9.946;2024-01-07T11:16:41;-0.80;94.40
5842;DHT22;2947;52.276;9.946;2024-01-07T11:19:07;-0.70;99.90
5842;DHT22;2947;52.276;9.946;2024-01-07T11:21:33;-0.20;99.90
5842;DHT22;2947;52.276;9.946;2024-01-07T11:24:00;-0.70;99.90
5842;DHT22;2947;52.276;9.946;2024-01-07T11:26:28;-0.70;99.90
5842;DHT22;2947;52.276;9.946;2024-01-07T11:28:56;-0.40;99.90
5842;DHT22;2947;52.276;9.946;2024-01-07T11:31:43;-0.70;99.90
5842;DHT22;2947;52.276;9.946;2024-01-07T11:34:10;-0.60;99.90
5842;DHT22;2947;52.276;9.946;2024-01-07T11:36:37;-0.60;99.90
5842;DHT22;2947;52.276;9.946;2024-01-07T11:39:05;-0.60;99.90
5842;DHT22;2947;52.276;9.946;2024-01-07T11:41:34;-0.60;99.90
5842;DHT22;2947;52.276;9.946;2024-01-07T11:44:00;-0.60;99.90
5842;DHT22;2947;52.276;9.946;2024-01-07T11:46:27;-0.60;99.90
5842;DHT22;2947;52.276;9.946;2024-01-07T11:48:56;-0.60;99.90
5842;DHT22;2947;52.276;9.946;2024-01-07T11:51:26;-0.60;99.90
5842;DHT22;2947;52.276;9.946;2024-01-07T11:53:53;-0.60;99.90
5842;DHT22;2947;52.276;9.946;2024-01-07T11:56:19;-0.60;99.90
5842;DHT22;2947;52.276;9.946;2024-01-07T11:58:45;-0.60;99.90
5842;DHT22;2947;52.276;9.946;2024-01-07T12:01:11;-0.60;99.90
5842;DHT22;2947;52.276;9.946;2024-01-07T12:03:37;-0.60;99.90
5842;DHT22;2947;52.276;9.946;2024-01-07T12:06:03;-0.60;99.90
5842;DHT22;2947;52.276;9.946;2024-01-07T12:08:32;-0.50;99.90
5842;DHT22;2947;52.276;9.946;2024-01-07T12:10:59;-0.50;99.90
5842;DHT22;2947;52.276;9.946;2024-01-07T12:13:25;-0.50;99.90
5842;DHT22;2947;52.276;9.946;2024-01-07T12:15:51;-0.50;99.90
5842;DHT22;2947;52.276;9.946;2024-01-07T12:18:17;-0.50;99.90
5842;DHT22;2947;52.276;9.946;2024-01-07T12:20:55;-0.50;99.90
5842;DHT22;2947;52.276;9.946;2024-01-07T12:23:27;-0.50;99.90
5842;DHT22;2947;52.276;9.946;2024-01-07T12:25:53;-0.50;99.90
5842;DHT22;2947;52.276;9.946;2024-01-07T12:28:21;-0.50;99.90
5842;DHT22;2947;52.276;9.946;2024-01-07T12:30:48;-0.40;99.90
5842;DHT22;2947;52.276;9.946;2024-01-07T12:33:19;-0.50;99.90
5842;DHT22;2947;52.276;9.946;2024-01-07T12:35:47;-0.40;99.90
5842;DHT22;2947;52.276;9.946;2024-01-07T12:38:13;-0.40;99.90
5842;DHT22;2947;52.276;9.946;2024-01-07T12:40:39;-0.40;99.90
5842;DHT22;2947;52.276;9.946;2024-01-07T12:43:05;-0.40;99.90
5842;DHT22;2947;52.276;9.946;2024-01-07T12:45:34;-0.40;99.90
5842;DHT22;2947;52.276;9.946;2024-01-07T12:48:00;-0.40;99.90
5842;DHT22;2947;52.276;9.946;2024-01-07T12:50:28;-0.40;99.90
5842;DHT22;2947;52.276;9.946;2024-01-07T12:52:56;-0.40;99.90
5842;DHT22;2947;52.276;9.946;2024-01-07T12:55:22;-0.40;99.90
5842;DHT22;2947;52.276;9.946;2024-01-07T12:57:48;-0.40;99.90
5842;DHT22;2947;52.276;9.946;2024-01-07T13:00:15;-0.40;99.90
5842;DHT22;2947;52.276;9.946;2024-01-07T13:02:41;-0.80;99.90
5842;DHT22;2947;52.276;9.946;2024-01-07T13:05:08;-0.30;99.90
5842;DHT22;2947;52.276;9.946;2024-01-07T13:07:35;-0.40;99.90
5842;DHT22;2947;52.276;9.946;2024-01-07T13:10:00;-0.30;99.90
5842;DHT22;2947;52.276;9.946;2024-01-07T13:12:26;-0.40;99.90
5842;DHT22;2947;52.276;9.946;2024-01-07T13:14:52;-0.30;99.90
5842;DHT22;2947;52.276;9.946;2024-01-07T13:17:18;-0.30;99.90
5842;DHT22;2947;52.276;9.946;2024-01-07T13:19:45;-0.30;99.90
5842;DHT22;2947;52.276;9.946;2024-01-07T13:22:11;-0.30;99.90
5842;DHT22;2947;52.276;9.946;2024-01-07T13:24:37;-0.30;99.90
5842;DHT22;2947;52.276;9.946;2024-01-07T13:27:03;-0.30;99.90
5842;DHT22;2947;52.276;9.946;2024-01-07T13:29:33;-0.20;99.90
5842;DHT22;2947;52.276;9.946;2024-01-07T13:32:00;-0.20;99.90
5842;DHT22;2947;52.276;9.946;2024-01-07T13:34:26;-0.20;99.90
5842;DHT22;2947;52.276;9.946;2024-01-07T13:36:52;-0.20;99.90
5842;DHT22;2947;52.276;9.946;2024-01-07T13:39:19;-0.30;99.90
5842;DHT22;2947;52.276;9.946;2024-01-07T13:41:46;-0.20;99.90
5842;DHT22;2947;52.276;9.946;2024-01-07T13:44:12;-0.20;99.90
5842;DHT22;2947;52.276;9.946;2024-01-07T13:46:46;-0.20;99.90
5842;DHT22;2947;52.276;9.946;2024-01-07T13:49:13;-0.20;99.90
5842;DHT22;2947;52.276;9.946;2024-01-07T13:51:39;0.20;99.90
5842;DHT22;2947;52.276;9.946;2024-01-07T13:54:06;-0.20;99.90
5842;DHT22;2947;52.276;9.946;2024-01-07T13:56:33;-0.10;99.90
5842;DHT22;2947;52.276;9.946;2024-01-07T13:59:02;-0.10;99.90
5842;DHT22;2947;52.276;9.946;2024-01-07T14:01:31;-0.10;99.90
5842;DHT22;2947;52.276;9.946;2024-01-07T14:03:57;-0.10;99.90
5842;DHT22;2947;52.276;9.946;2024-01-07T14:06:22;-0.10;99.90
5842;DHT22;2947;52.276;9.946;2024-01-07T14:08:48;-0.20;99.90
5842;DHT22;2947;52.276;9.946;2024-01-07T14:11:14;-0.10;99.90
5842;DHT22;2947;52.276;9.946;2024-01-07T14:13:39;-0.10;99.90
5842;DHT22;2947;52.276;9.946;2024-01-07T14:16:06;-0.10;99.90
5842;DHT22;2947;52.276;9.946;2024-01-07T14:18:32;-0.10;99.90
5842;DHT22;2947;52.276;9.946;2024-01-07T14:20:57;-0.10;99.90
5842;DHT22;2947;52.276;9.946;2024-01-07T14:23:23;-0.10;99.90
5842;DHT22;2947;52.276;9.946;2024-01-07T14:25:49;-0.10;99.90
5842;DHT22;2947;52.276;9.946;2024-01-07T14:28:15;-0.10;99.90
5842;DHT22;2947;52.276;9.946;2024-01-07T14:30:40;-0.10;99.90
5842;DHT22;2947;52.276;9.946;2024-01-07T14:33:06;-0.10;99.90
5842;DHT22;2947;52.276;9.946;2024-01-07T14:35:33;-0.20;99.90
5842;DHT22;2947;52.276;9.946;2024-01-07T14:37:58;-0.20;99.90
5842;DHT22;2947;52.276;9.946;2024-01-07T14:40:25;-0.20;99.90
5842;DHT22;2947;52.276;9.946;2024-01-07T14:42:51;-0.20;99.90
5842;DHT22;2947;52.276;9.946;2024-01-07T14:45:26;-0.20;99.90
5842;DHT22;2947;52.276;9.946;2024-01-07T14:47:52;-0.20;99.90
5842;DHT22;2947;52.276;9.946;2024-01-07T14:50:18;-0.20;99.90
5842;DHT22;2947;52.276;9.946;2024-01-07T14:52:45;-0.30;99.90
5842;DHT22;2947;52.276;9.946;2024-01-07T14:55:11;-0.30;99.90
5842;DHT22;2947;52.276;9.946;2024-01-07T14:57:38;-0.30;99.90
5842;DHT22;2947;52.276;9.946;2024-01-07T15:00:07;-0.30;99.90
5842;DHT22;2947;52.276;9.946;2024-01-07T15:02:35;-0.30;92.40
5842;DHT22;2947;52.276;9.946;2024-01-07T15:05:01;-0.40;91.10
5842;DHT22;2947;52.276;9.946;2024-01-07T15:07:28;-0.40;90.20
5842;DHT22;2947;52.276;9.946;2024-01-07T15:09:54;-0.40;89.90
5842;DHT22;2947;52.276;9.946;2024-01-07T15:12:20;-0.30;99.60
5842;DHT22;2947;52.276;9.946;2024-01-07T15:14:46;-0.40;99.90
5842;DHT22;2947;52.276;9.946;2024-01-07T15:17:12;-0.40;99.90
5842;DHT22;2947;52.276;9.946;2024-01-07T15:19:38;-0.40;99.90
5842;DHT22;2947;52.276;9.946;2024-01-07T15:22:05;-0.40;99.90
5842;DHT22;2947;52.276;9.946;2024-01-07T15:24:31;-0.40;99.90
5842;DHT22;2947;52.276;9.946;2024-01-07T15:26:57;-0.40;99.90
5842;DHT22;2947;52.276;9.946;2024-01-07T15:29:23;-0.40;99.90
5842;DHT22;2947;52.276;9.946;2024-01-07T15:31:48;-0.40;99.90
5842;DHT22;2947;52.276;9.946;2024-01-07T15:34:14;-1.90;99.90
5842;DHT22;2947;52.276;9.946;2024-01-07T15:36:40;-0.40;99.90
5842;DHT22;2947;52.276;9.946;2024-01-07T15:39:06;-0.40;99.90
5842;DHT22;2947;52.276;9.946;2024-01-07T15:41:35;-0.40;99.90
5842;DHT22;2947;52.276;9.946;2024-01-07T15:44:01;0.30;99.90
5842;DHT22;2947;52.276;9.946;2024-01-07T15:46:27;-0.50;99.90
5842;DHT22;2947;52.276;9.946;2024-01-07T15:48:53;-0.40;99.90
5842;DHT22;2947;52.276;9.946;2024-01-07T15:51:19;-0.50;99.90
5842;DHT22;2947;52.276;9.946;2024-01-07T15:53:46;-0.50;99.90
5842;DHT22;2947;52.276;9.946;2024-01-07T15:56:13;-0.50;99.90
5842;DHT22;2947;52.276;9.946;2024-01-07T15:58:40;-0.50;99.90
5842;DHT22;2947;52.276;9.946;2024-01-07T16:01:08;-0.50;99.90
5842;DHT22;2947;52.276;9.946;2024-01-07T16:03:35;-0.50;99.90